createdAt,value
2019-04-05T00:00:42.901Z,13.20
2019-04-05T00:03:13.103Z,13.00
2019-04-05T00:05:43.452Z,13.83
2019-04-05T00:08:14.039Z,13.73
2019-04-05T00:10:44.613Z,13.07
2019-04-05T00:13:14.961Z,12.43
2019-04-05T00:15:46.062Z,13.37
2019-04-05T00:18:16.486Z,14.03
2019-04-05T00:20:46.658Z,14.43
2019-04-05T00:23:17.119Z,14.60
2019-04-05T00:25:47.574Z,13.93
2019-04-05T00:28:18.039Z,14.53
2019-04-05T00:30:48.547Z,14.17
2019-04-05T00:41:17.422Z,13.60
2019-04-05T00:43:47.786Z,15.37
2019-04-05T00:46:18.101Z,14.27
2019-04-05T00:48:48.344Z,14.23
2019-04-05T00:51:19.106Z,15.20
2019-04-05T00:53:49.746Z,14.80
2019-04-05T00:56:20.478Z,14.90
2019-04-05T00:58:50.707Z,14.20
2019-04-05T01:01:21.177Z,15.50
2019-04-05T01:03:51.394Z,15.47
2019-04-05T01:06:21.792Z,17.02
2019-04-05T01:08:52.189Z,16.70
2019-04-05T01:11:22.629Z,15.67
2019-04-05T01:13:54.015Z,17.07
2019-04-05T01:16:24.439Z,16.70
2019-04-05T01:18:54.866Z,16.77
2019-04-05T01:21:26.776Z,16.87
2019-04-05T01:23:59.933Z,17.13
2019-04-05T01:26:31.702Z,17.23
2019-04-05T01:29:02.052Z,17.52
2019-04-05T01:31:32.480Z,18.03
2019-04-05T01:34:05.420Z,17.40
2019-04-05T01:36:35.031Z,17.50
2019-04-05T01:39:07.794Z,17.97
2019-04-05T01:41:38.390Z,17.27
2019-04-05T01:44:09.173Z,16.73
2019-04-05T01:46:39.745Z,16.93
2019-04-05T01:49:09.993Z,18.27
2019-04-05T01:51:40.429Z,18.07
2019-04-05T01:54:10.890Z,17.93
2019-04-05T01:56:41.146Z,18.47
2019-04-05T01:59:11.592Z,17.32
2019-04-05T02:01:42.016Z,18.93
2019-04-05T02:04:12.244Z,18.43
2019-04-05T02:06:42.849Z,16.63
2019-04-05T02:09:13.628Z,19.13
2019-04-05T02:14:18.966Z,17.93
2019-04-05T02:16:49.731Z,18.37
2019-04-05T02:19:20.142Z,17.77
2019-04-05T02:21:50.501Z,19.67
2019-04-05T02:24:20.950Z,20.27
2019-04-05T02:26:51.278Z,18.50
2019-04-05T02:29:21.633Z,19.80
2019-04-05T02:31:52.192Z,20.00
2019-04-05T02:34:22.528Z,18.85
2019-04-05T02:36:52.832Z,19.52
2019-04-05T02:39:23.364Z,19.20
2019-04-05T02:42:03.605Z,18.43
2019-04-05T02:44:43.063Z,18.62
2019-04-05T02:47:14.557Z,20.47
2019-04-05T02:49:46.256Z,20.17
2019-04-05T02:52:20.265Z,19.32
2019-04-05T02:54:51.828Z,18.73
2019-04-05T02:57:22.837Z,19.37
2019-04-05T02:59:53.724Z,19.20
2019-04-05T03:02:24.382Z,19.30
2019-04-05T03:04:54.659Z,19.27
2019-04-05T03:07:26.403Z,19.73
2019-04-05T03:09:57.467Z,18.70
2019-04-05T03:12:28.153Z,20.77
2019-04-05T03:14:59.228Z,20.57
2019-04-05T03:17:29.728Z,19.50
2019-04-05T03:20:02.687Z,20.97
2019-04-05T03:22:34.386Z,21.33
2019-04-05T03:25:05.232Z,20.07
2019-04-05T03:27:38.427Z,19.63
2019-04-05T03:30:09.817Z,20.97
2019-04-05T03:32:40.126Z,20.17
2019-04-05T03:35:10.581Z,20.13
2019-04-05T03:37:40.867Z,21.10
2019-04-05T03:40:11.485Z,20.80
2019-04-05T03:42:41.916Z,20.03
2019-04-05T03:45:12.608Z,18.60
2019-04-05T03:47:43.052Z,20.27
2019-04-05T03:50:13.654Z,18.60
2019-04-05T03:52:44.247Z,19.63
2019-04-05T03:55:14.814Z,21.75
2019-04-05T03:57:45.045Z,20.53
2019-04-05T04:00:15.598Z,19.50
2019-04-05T04:02:45.835Z,20.90
2019-04-05T04:05:16.059Z,20.73
2019-04-05T04:07:46.323Z,21.30
2019-04-05T04:10:22.633Z,21.93
2019-04-05T04:12:53.090Z,20.20
2019-04-05T04:15:23.872Z,20.77
2019-04-05T04:17:54.254Z,18.43
2019-04-05T04:20:45.376Z,21.62
2019-04-05T04:23:16.233Z,21.37
2019-04-05T04:25:52.377Z,20.97
2019-04-05T04:28:22.856Z,19.87
2019-04-05T04:30:53.347Z,20.17
2019-04-05T04:33:23.652Z,22.17
2019-04-05T04:35:54.628Z,21.00
2019-04-05T04:38:25.323Z,20.63
2019-04-05T04:40:56.335Z,21.10
2019-04-05T04:43:27.158Z,19.90
2019-04-05T04:45:57.445Z,26.05
2019-04-05T04:48:29.191Z,18.07
2019-04-05T04:51:00.026Z,19.53
2019-04-05T04:53:30.509Z,17.67
2019-04-05T04:56:00.721Z,19.27
2019-04-05T04:58:31.101Z,18.20
2019-04-05T05:01:01.406Z,18.27
2019-04-05T05:03:32.051Z,18.13
2019-04-05T05:06:08.250Z,17.00
2019-04-05T05:08:38.450Z,18.07
2019-04-05T05:11:14.686Z,17.40
2019-04-05T05:13:41.367Z,17.30
2019-04-05T05:16:11.668Z,17.77
2019-04-05T05:18:42.045Z,17.80
2019-04-05T05:21:12.242Z,17.23
2019-04-05T05:23:42.550Z,17.27
2019-04-05T05:26:12.874Z,18.20
2019-04-05T05:28:43.410Z,18.60
2019-04-05T05:31:13.870Z,19.73
2019-04-05T05:33:44.491Z,18.90
2019-04-05T05:36:14.941Z,17.77
2019-04-05T05:38:45.506Z,16.57
2019-04-05T05:41:15.968Z,18.48
2019-04-05T05:43:46.330Z,18.27
2019-04-05T05:46:16.611Z,17.90
2019-04-05T05:48:46.939Z,18.03
2019-04-05T05:51:17.924Z,17.10
2019-04-05T05:53:48.101Z,16.25
2019-04-05T05:56:18.354Z,17.20
2019-04-05T05:58:48.745Z,18.30
2019-04-05T06:01:19.055Z,18.25
2019-04-05T06:03:49.266Z,17.23
2019-04-05T06:06:19.534Z,18.43
2019-04-05T06:08:49.590Z,18.60
2019-04-05T06:11:19.732Z,18.02
2019-04-05T06:13:49.914Z,17.07
2019-04-05T06:16:20.168Z,18.53
2019-04-05T06:18:50.346Z,16.40
2019-04-05T06:21:20.477Z,18.20
2019-04-05T06:23:50.645Z,18.27
2019-04-05T06:26:20.776Z,18.53
2019-04-05T06:28:51.120Z,18.43
2019-04-05T06:31:21.319Z,18.00
2019-04-05T06:33:51.403Z,17.50
2019-04-05T06:36:21.604Z,19.73
2019-04-05T06:38:51.665Z,17.03
2019-04-05T06:41:21.795Z,18.70
2019-04-05T06:43:51.870Z,17.47
2019-04-05T06:46:21.935Z,18.77
2019-04-05T06:48:52.071Z,17.67
2019-04-05T06:51:22.269Z,18.70
2019-04-05T06:53:52.397Z,19.10
2019-04-05T06:56:22.503Z,16.60
2019-04-05T06:58:52.724Z,18.85
2019-04-05T07:01:22.834Z,17.30
2019-04-05T07:03:55.254Z,17.70
2019-04-05T07:06:24.697Z,18.35
2019-04-05T07:08:54.913Z,17.87
2019-04-05T07:11:25.149Z,17.50
2019-04-05T07:13:55.291Z,17.60
2019-04-05T07:16:25.603Z,17.83
2019-04-05T07:18:55.656Z,17.30
2019-04-05T07:21:25.828Z,17.27
2019-04-05T07:23:55.902Z,15.30
2019-04-05T07:26:26.166Z,15.83
2019-04-05T07:28:56.305Z,16.53
2019-04-05T07:31:26.607Z,13.97
2019-04-05T07:33:56.807Z,14.57
2019-04-05T07:36:26.901Z,14.20
2019-04-05T07:38:57.074Z,14.07
2019-04-05T07:41:27.565Z,12.93
2019-04-05T07:43:57.793Z,13.53
2019-04-05T07:46:27.935Z,11.73
2019-04-05T07:48:58.107Z,12.60
2019-04-05T07:51:28.355Z,12.87
2019-04-05T07:53:58.551Z,12.90
2019-04-05T07:56:28.757Z,11.43
2019-04-05T07:58:58.899Z,10.80
2019-04-05T08:01:29.118Z,10.80
2019-04-05T08:03:59.361Z,10.13
2019-04-05T08:06:30.454Z,10.43
2019-04-05T08:09:10.998Z,9.63
2019-04-05T08:11:44.105Z,10.73
2019-04-05T08:14:17.830Z,9.85
2019-04-05T08:16:47.420Z,9.63
2019-04-05T08:19:17.723Z,9.87
2019-04-05T08:21:47.913Z,10.10
2019-04-05T08:24:18.157Z,10.13
2019-04-05T08:26:48.343Z,9.27
2019-04-05T08:29:18.507Z,9.60
2019-04-05T08:31:48.666Z,10.07
2019-04-05T08:34:18.972Z,9.63
2019-04-05T08:36:49.243Z,10.73
2019-04-05T08:39:19.448Z,10.53
2019-04-05T08:41:49.576Z,9.80
2019-04-05T08:44:19.904Z,11.20
2019-04-05T08:46:50.070Z,10.70
2019-04-05T08:49:20.176Z,10.67
2019-04-05T08:51:50.225Z,10.40
2019-04-05T08:54:31.936Z,10.60
2019-04-05T08:56:52.409Z,10.63
2019-04-05T08:59:22.550Z,9.68
2019-04-05T09:01:52.817Z,10.75
2019-04-05T09:04:23.110Z,10.90
2019-04-05T09:06:53.318Z,10.23
2019-04-05T09:09:24.776Z,10.30
2019-04-05T09:11:55.064Z,10.87
2019-04-05T09:14:25.168Z,11.40
2019-04-05T09:16:55.312Z,11.10
2019-04-05T09:19:25.459Z,12.03
2019-04-05T09:21:55.775Z,10.63
2019-04-05T09:24:25.873Z,10.33
2019-04-05T09:26:56.018Z,12.43
2019-04-05T09:29:26.299Z,11.13
2019-04-05T09:31:56.442Z,11.67
2019-04-05T09:34:26.647Z,11.70
2019-04-05T09:36:56.749Z,10.75
2019-04-05T09:39:26.915Z,10.77
2019-04-05T09:41:56.982Z,12.53
2019-04-05T09:44:27.560Z,12.23
2019-04-05T09:46:57.778Z,12.07
2019-04-05T09:49:36.709Z,11.30
2019-04-05T09:52:04.396Z,12.13
2019-04-05T09:54:34.510Z,11.13
2019-04-05T09:57:04.689Z,11.63
2019-04-05T09:59:34.885Z,11.30
2019-04-05T10:02:05.104Z,10.87
2019-04-05T10:04:35.224Z,10.73
2019-04-05T10:07:05.720Z,11.53
2019-04-05T10:09:35.901Z,11.63
2019-04-05T10:12:06.928Z,10.63
2019-04-05T10:14:37.133Z,11.03
2019-04-05T10:19:49.810Z,11.33
2019-04-05T10:22:14.825Z,11.33
2019-04-05T10:24:44.893Z,10.80
2019-04-05T10:27:15.129Z,11.20
2019-04-05T10:29:45.207Z,11.70
2019-04-05T10:32:15.501Z,11.22
2019-04-05T10:34:45.744Z,11.40
2019-04-05T10:37:15.852Z,11.53
2019-04-05T10:39:45.998Z,11.50
2019-04-05T10:42:30.955Z,10.60
2019-04-05T10:45:01.295Z,10.27
2019-04-05T10:47:31.566Z,11.30
2019-04-05T10:50:03.237Z,11.90
2019-04-05T10:52:33.887Z,11.45
2019-04-05T10:55:04.305Z,12.30
2019-04-05T10:57:34.533Z,13.40
2019-04-05T11:00:06.577Z,12.70
2019-04-05T11:02:36.709Z,11.60
2019-04-05T11:05:07.187Z,12.40
2019-04-05T11:07:37.462Z,12.70
2019-04-05T11:10:08.475Z,11.87
2019-04-05T11:12:38.666Z,11.10
2019-04-05T11:15:09.539Z,11.33
2019-04-05T11:17:41.509Z,11.97
2019-04-05T11:20:21.317Z,11.70
2019-04-05T11:22:46.675Z,13.23
2019-04-05T11:25:20.494Z,11.28
2019-04-05T11:27:49.382Z,10.80
2019-04-05T11:30:42.076Z,10.53
2019-04-05T11:33:12.698Z,10.60
2019-04-05T11:35:42.996Z,10.10
2019-04-05T11:38:14.947Z,10.00
2019-04-05T11:40:46.127Z,10.80
2019-04-05T11:43:17.695Z,9.30
2019-04-05T11:45:48.672Z,9.57
2019-04-05T11:48:20.112Z,8.68
2019-04-05T11:50:50.377Z,9.20
2019-04-05T11:53:22.130Z,9.47
2019-04-05T11:55:52.361Z,10.00
2019-04-05T11:58:22.701Z,10.05
2019-04-05T12:00:59.999Z,10.70
2019-04-05T12:03:30.524Z,11.17
2019-04-05T12:06:00.739Z,11.00
2019-04-05T12:08:30.883Z,12.07
2019-04-05T12:11:01.078Z,11.47
2019-04-05T12:13:31.227Z,10.00
2019-04-05T12:16:01.492Z,9.63
2019-04-05T12:18:34.415Z,8.30
2019-04-05T12:21:05.749Z,8.87
2019-04-05T12:23:35.455Z,8.70
2019-04-05T12:26:06.956Z,9.83
2019-04-05T12:28:37.174Z,9.53
2019-04-05T12:31:07.415Z,9.33
2019-04-05T12:33:39.294Z,11.20
2019-04-05T12:36:09.679Z,9.73
2019-04-05T12:38:40.302Z,9.70
2019-04-05T12:41:11.498Z,9.67
2019-04-05T12:43:44.595Z,8.77
2019-04-05T12:46:15.909Z,8.47
2019-04-05T12:48:46.618Z,8.63
2019-04-05T12:51:17.276Z,9.10
2019-04-05T12:53:47.587Z,7.83
2019-04-05T12:56:18.137Z,8.63
2019-04-05T12:58:48.398Z,8.83
2019-04-05T13:01:20.195Z,8.15
2019-04-05T13:03:51.395Z,9.10
2019-04-05T13:06:22.649Z,8.10
2019-04-05T13:08:53.905Z,8.53
2019-04-05T13:11:26.769Z,7.83
2019-04-05T13:13:57.004Z,8.23
2019-04-05T13:16:27.569Z,8.10
2019-04-05T13:19:00.560Z,8.70
2019-04-05T13:21:32.103Z,7.60
2019-04-05T13:24:04.163Z,7.93
2019-04-05T13:26:36.597Z,6.80
2019-04-05T13:29:07.012Z,7.53
2019-04-05T13:31:37.281Z,7.20
2019-04-05T13:34:07.756Z,7.70
2019-04-05T13:36:37.904Z,7.97
2019-04-05T13:39:11.729Z,7.67
2019-04-05T13:41:41.953Z,7.30
2019-04-05T13:44:12.237Z,7.33
2019-04-05T13:46:43.007Z,7.40
2019-04-05T13:49:13.452Z,7.25
2019-04-05T13:51:43.764Z,6.87
2019-04-05T13:54:14.040Z,8.30
2019-04-05T13:56:44.273Z,7.20
2019-04-05T13:59:14.696Z,7.08
2019-04-05T14:01:44.921Z,7.00
2019-04-05T14:04:17.020Z,7.33
2019-04-05T14:06:47.161Z,8.13
2019-04-05T14:09:17.614Z,8.58
2019-04-05T14:11:47.735Z,8.07
2019-04-05T14:14:17.991Z,7.23
2019-04-05T14:16:48.197Z,6.50
2019-04-05T14:19:19.353Z,7.53
2019-04-05T14:21:52.693Z,6.97
2019-04-05T14:24:23.379Z,6.93
2019-04-05T14:26:53.464Z,7.03
2019-04-05T14:29:23.787Z,6.75
2019-04-05T14:31:53.944Z,6.53
2019-04-05T14:34:24.572Z,6.63
2019-04-05T14:36:54.839Z,7.53
2019-04-05T14:39:25.058Z,6.80
2019-04-05T14:41:55.219Z,7.23
2019-04-05T14:44:25.451Z,7.17
2019-04-05T14:46:57.796Z,7.30
2019-04-05T14:49:30.270Z,7.93
2019-04-05T14:52:01.237Z,8.13
2019-04-05T14:54:31.379Z,7.50
2019-04-05T14:57:05.453Z,7.50
2019-04-05T14:59:33.727Z,8.23
2019-04-05T15:02:04.134Z,7.67
2019-04-05T15:04:34.259Z,9.63
2019-04-05T15:07:04.605Z,8.73
2019-04-05T15:09:34.858Z,7.97
2019-04-05T15:12:05.740Z,8.60
2019-04-05T15:14:36.403Z,7.87
2019-04-05T15:17:07.400Z,7.40
2019-04-05T15:19:37.934Z,8.30
2019-04-05T15:22:10.873Z,9.80
2019-04-05T15:24:40.743Z,8.20
2019-04-05T15:29:55.810Z,8.50
2019-04-05T15:32:28.089Z,8.30
2019-04-05T15:34:58.993Z,8.60
2019-04-05T15:37:32.474Z,7.07
2019-04-05T15:40:02.049Z,7.63
2019-04-05T15:42:32.588Z,7.30
2019-04-05T15:45:03.302Z,7.43
2019-04-05T15:47:33.812Z,7.53
2019-04-05T15:50:04.445Z,7.80
2019-04-05T15:52:34.868Z,7.97
2019-04-05T15:55:05.747Z,7.83
2019-04-05T15:57:39.195Z,7.63
2019-04-05T16:00:10.751Z,8.20
2019-04-05T16:02:43.101Z,8.67
2019-04-05T16:05:14.887Z,9.88
2019-04-05T16:07:47.938Z,9.10
2019-04-05T16:10:18.620Z,9.90
2019-04-05T16:12:48.868Z,10.07
2019-04-05T16:15:19.192Z,9.80
2019-04-05T16:17:49.366Z,13.40
2019-04-05T16:20:19.936Z,11.50
2019-04-05T16:22:50.191Z,10.43
2019-04-05T16:25:20.531Z,10.93
2019-04-05T16:27:50.817Z,9.47
2019-04-05T16:30:21.750Z,29.90
2019-04-05T16:32:51.964Z,11.53
2019-04-05T16:35:22.120Z,9.35
2019-04-05T16:37:52.276Z,9.67
2019-04-05T16:40:22.510Z,10.08
2019-04-05T16:43:02.330Z,10.67
2019-04-05T16:45:24.674Z,10.20
2019-04-05T16:47:54.936Z,8.70
2019-04-05T16:50:25.244Z,10.83
2019-04-05T16:52:55.890Z,10.20
2019-04-05T16:55:26.078Z,10.38
2019-04-05T16:57:56.132Z,11.27
2019-04-05T17:00:26.351Z,10.60
2019-04-05T17:02:56.494Z,10.47
2019-04-05T17:05:26.614Z,11.20
2019-04-05T17:07:56.818Z,10.13
2019-04-05T17:10:27.110Z,11.13
2019-04-05T17:12:57.381Z,10.60
2019-04-05T17:15:27.607Z,10.93
2019-04-05T17:17:57.826Z,11.83
2019-04-05T17:20:28.090Z,11.87
2019-04-05T17:22:58.855Z,10.97
2019-04-05T17:25:29.065Z,10.87
2019-04-05T17:27:59.368Z,10.90
2019-04-05T17:30:29.726Z,11.23
2019-04-05T17:32:59.975Z,10.93
2019-04-05T17:35:30.236Z,11.60
2019-04-05T17:38:00.463Z,11.17
2019-04-05T17:40:30.702Z,11.17
2019-04-05T17:43:00.876Z,9.97
2019-04-05T17:45:31.159Z,12.67
2019-04-05T17:48:03.354Z,10.40
2019-04-05T17:50:35.639Z,11.07
2019-04-05T17:53:12.867Z,10.32
2019-04-05T17:55:38.575Z,11.48
2019-04-05T17:58:09.339Z,10.97
2019-04-05T18:00:39.930Z,11.50
2019-04-05T18:03:10.465Z,10.97
2019-04-05T18:05:41.016Z,11.50
2019-04-05T18:08:11.496Z,13.43
2019-04-05T18:13:08.277Z,13.10
2019-04-05T18:15:46.692Z,12.87
2019-04-05T18:18:10.983Z,13.10
2019-04-05T18:20:41.608Z,13.83
2019-04-05T18:23:24.414Z,14.70
2019-04-05T18:25:44.327Z,14.03
2019-04-05T18:28:14.833Z,12.88
2019-04-05T18:30:45.336Z,12.93
2019-04-05T18:33:15.823Z,13.38
2019-04-05T18:35:46.420Z,13.03
2019-04-05T18:38:16.971Z,13.00
2019-04-05T18:40:47.483Z,14.07
2019-04-05T18:43:18.010Z,13.37
2019-04-05T18:45:48.537Z,14.00
2019-04-05T18:48:18.979Z,13.48
2019-04-05T18:50:49.503Z,13.80
2019-04-05T18:53:20.103Z,14.07
2019-04-05T18:55:50.669Z,14.17
2019-04-05T18:58:21.173Z,13.87
2019-04-05T19:00:51.713Z,13.80
2019-04-05T19:03:22.238Z,13.83
2019-04-05T19:05:52.794Z,16.23
2019-04-05T19:08:23.222Z,14.47
2019-04-05T19:10:53.738Z,14.17
2019-04-05T19:13:24.262Z,13.60
2019-04-05T19:15:54.777Z,14.07
2019-04-05T19:18:25.233Z,13.70
2019-04-05T19:23:50.000Z,13.43
2019-04-05T19:26:10.037Z,14.87
2019-04-05T19:28:40.547Z,19.03
2019-04-05T19:48:56.429Z,15.33
2019-04-05T19:51:27.390Z,14.87
2019-04-05T19:54:01.562Z,16.33
2019-04-05T19:59:17.982Z,16.27
2019-04-05T20:01:48.538Z,15.30
2019-04-05T20:04:18.968Z,14.30
2019-04-05T20:06:58.077Z,15.57
2019-04-05T20:09:22.003Z,15.30
2019-04-05T20:11:52.608Z,14.70
2019-04-05T20:14:23.191Z,17.62
2019-04-05T20:16:53.680Z,15.10
2019-04-05T20:19:24.675Z,16.77
2019-04-05T20:21:55.126Z,15.57
2019-04-05T20:24:25.645Z,16.12
2019-04-05T20:26:56.080Z,15.50
2019-04-05T20:29:26.646Z,16.70
2019-04-05T20:31:57.241Z,16.30
2019-04-05T20:34:27.756Z,15.63
2019-04-05T20:36:58.293Z,15.80
2019-04-05T20:39:28.750Z,15.47
2019-04-05T20:41:59.398Z,15.10
2019-04-05T20:44:29.916Z,15.50
2019-04-05T20:47:00.448Z,16.20
2019-04-05T20:49:31.159Z,16.37
2019-04-05T20:52:01.605Z,16.13
2019-04-05T20:54:32.298Z,15.50
2019-04-05T20:57:02.728Z,15.90
2019-04-05T20:59:33.326Z,17.97
2019-04-05T21:02:03.939Z,17.10
2019-04-05T21:04:34.469Z,16.60
2019-04-05T21:07:04.886Z,16.43
2019-04-05T21:09:35.570Z,14.63
2019-04-05T21:12:07.052Z,14.90
2019-04-05T21:14:37.696Z,16.33
2019-04-05T21:17:08.193Z,17.00
2019-04-05T21:19:38.829Z,16.43
2019-04-05T21:22:09.378Z,16.30
2019-04-05T21:24:39.964Z,19.27
2019-04-05T21:27:12.575Z,17.53
2019-04-05T21:29:43.101Z,17.63
2019-04-05T21:32:13.574Z,16.42
2019-04-05T21:34:44.157Z,16.97
2019-04-05T21:37:15.024Z,17.10
2019-04-05T21:39:45.633Z,16.33
2019-04-05T21:42:16.196Z,17.17
2019-04-05T21:44:47.044Z,16.77
2019-04-05T21:47:17.878Z,16.95
2019-04-05T21:49:48.476Z,22.50
2019-04-05T21:52:19.780Z,18.40
2019-04-05T21:54:51.135Z,17.57
2019-04-05T21:57:21.808Z,20.32
2019-04-05T21:59:52.420Z,23.23
2019-04-05T22:02:23.193Z,22.90
2019-04-05T22:04:53.569Z,22.20
2019-04-05T22:07:23.683Z,22.52
2019-04-05T22:09:54.124Z,21.63
2019-04-05T22:15:13.888Z,20.30
2019-04-05T22:17:44.642Z,20.60
2019-04-05T22:20:15.199Z,20.08
2019-04-05T22:22:45.365Z,20.17
2019-04-05T22:25:15.750Z,20.23
2019-04-05T22:27:46.485Z,21.47
2019-04-05T22:30:17.203Z,21.93
2019-04-05T22:32:47.461Z,21.93
2019-04-05T22:35:17.755Z,23.12
2019-04-05T22:37:48.033Z,22.30
2019-04-05T22:40:18.347Z,22.60
2019-04-05T22:42:48.709Z,22.60
2019-04-05T22:45:19.079Z,22.77
2019-04-05T22:47:49.324Z,22.30
2019-04-05T22:50:19.785Z,22.62
2019-04-05T22:52:50.157Z,22.83
2019-04-05T22:55:20.458Z,22.93
2019-04-05T22:57:50.791Z,24.53
2019-04-05T23:00:21.149Z,23.85
2019-04-05T23:02:51.281Z,24.90
2019-04-05T23:05:21.775Z,25.85
2019-04-05T23:07:51.999Z,26.13
2019-04-05T23:10:22.288Z,24.90
2019-04-05T23:12:52.597Z,24.43
2019-04-05T23:15:22.903Z,25.33
2019-04-05T23:17:53.201Z,24.50
2019-04-05T23:20:23.478Z,26.20
2019-04-05T23:22:53.778Z,24.33
2019-04-05T23:25:24.087Z,26.37
2019-04-05T23:27:54.410Z,27.00
2019-04-05T23:30:26.515Z,25.52
2019-04-05T23:32:59.997Z,25.03
2019-04-05T23:35:30.299Z,23.37
2019-04-05T23:38:00.658Z,25.73
2019-04-05T23:40:30.967Z,26.97
2019-04-05T23:43:01.184Z,25.83
2019-04-05T23:45:31.501Z,25.80
2019-04-05T23:48:01.812Z,24.77
2019-04-05T23:50:32.179Z,24.87
2019-04-05T23:53:02.845Z,25.80
2019-04-05T23:55:33.869Z,25.10
2019-04-05T23:58:04.637Z,24.13
